sensor_id;sensor_type;location;lat;lon;timestamp;pressure;altitude;pressure_sealevel;temperature;humidity
74427;BME280;62859;53.906;27.430;2023-11-21T06:41:33;1008.1;;;-0.8;52.1
74427;BME280;62859;53.906;27.430;2023-11-21T06:46:23;1008.1;;;-0.7;52
74427;BME280;62859;53.906;27.430;2023-11-21T06:51:45;1008;;;-0.6;51.6
74427;BME280;62859;53.906;27.430;2023-11-21T06:56:43;1008.1;;;-0.6;51.2
74427;BME280;62859;53.906;27.430;2023-11-21T07:01:29;1008.2;;;-0.6;51.2
74427;BME280;62859;53.906;27.430;2023-11-21T07:06:27;1008.2;;;-0.5;51.1
74427;BME280;62859;53.906;27.430;2023-11-21T07:11:19;1008.2;;;-0.5;51.1
74427;BME280;62859;53.906;27.430;2023-11-21T07:16:09;1008.1;;;-0.6;51.3
74427;BME280;62859;53.906;27.430;2023-11-21T07:21:45;1008.1;;;-0.4;51.4
74427;BME280;62859;53.906;27.430;2023-11-21T07:26:11;1008.2;;;-0.5;51.5
74427;BME280;62859;53.906;27.430;2023-11-21T07:31:45;1008.3;;;-0.5;51.6
74427;BME280;62859;53.906;27.430;2023-11-21T07:36:25;1008.4;;;-0.5;51.5
74427;BME280;62859;53.906;27.430;2023-11-21T07:41:45;1008.5;;;-0.4;51.3
74427;BME280;62859;53.906;27.430;2023-11-21T07:46:33;1008.5;;;-0.3;50.8
74427;BME280;62859;53.906;27.430;2023-11-21T07:51:45;1008.6;;;-0.2;50.3
74427;BME280;62859;53.906;27.430;2023-11-21T07:56:43;1008.7;;;-0.1;50
74427;BME280;62859;53.906;27.430;2023-11-21T08:01:19;1008.7;;;0;50.2
74427;BME280;62859;53.906;27.430;2023-11-21T08:06:17;1008.7;;;0.1;49.7
74427;BME280;62859;53.906;27.430;2023-11-21T08:11:23;1008.7;;;0.1;49.5
74427;BME280;62859;53.906;27.430;2023-11-21T08:16:27;1008.6;;;0.1;49.4
74427;BME280;62859;53.906;27.430;2023-11-21T08:21:35;1008.7;;;0.2;49.2
74427;BME280;62859;53.906;27.430;2023-11-21T08:26:25;1008.6;;;0.4;48.7
74427;BME280;62859;53.906;27.430;2023-11-21T08:31:45;1008.5;;;0.4;47.8
74427;BME280;62859;53.906;27.430;2023-11-21T08:36:33;1008.6;;;0.4;47.5
74427;BME280;62859;53.906;27.430;2023-11-21T08:41:43;1008.7;;;0.5;47.6
74427;BME280;62859;53.906;27.430;2023-11-21T08:46:43;1008.8;;;0.5;46.6
74427;BME280;62859;53.906;27.430;2023-11-21T08:51:17;1008.8;;;0.5;46.3
74427;BME280;62859;53.906;27.430;2023-11-21T08:56:27;1008.8;;;0.5;45.8
74427;BME280;62859;53.906;27.430;2023-11-21T09:01:09;1008.7;;;0.5;44.6
74427;BME280;62859;53.906;27.430;2023-11-21T09:06:11;1008.6;;;0.6;44.3
74427;BME280;62859;53.906;27.430;2023-11-21T09:11:43;1008.7;;;0.5;43.7
74427;BME280;62859;53.906;27.430;2023-11-21T09:16:23;1008.8;;;0.7;44.2
74427;BME280;62859;53.906;27.430;2023-11-21T09:21:45;1008.8;;;1.2;42.6
74427;BME280;62859;53.906;27.430;2023-11-21T09:26:35;1008.8;;;1.5;44.4
74427;BME280;62859;53.906;27.430;2023-11-21T09:31:43;1008.7;;;1.6;41.6
74427;BME280;62859;53.906;27.430;2023-11-21T09:36:44;1008.8;;;1.4;41.6
74427;BME280;62859;53.906;27.430;2023-11-21T09:41:11;1008.8;;;1.3;41.5
74427;BME280;62859;53.906;27.430;2023-11-21T09:46:31;1008.7;;;1.2;41.5
74427;BME280;62859;53.906;27.430;2023-11-21T09:51:33;1008.8;;;1.1;41.7
74427;BME280;62859;53.906;27.430;2023-11-21T09:56:09;1008.8;;;1.2;41.6
74427;BME280;62859;53.906;27.430;2023-11-21T10:01:35;1008.8;;;1.3;41.1
74427;BME280;62859;53.906;27.430;2023-11-21T10:06:23;1008.8;;;1.2;41.3
74427;BME280;62859;53.906;27.430;2023-11-21T10:11:47;1008.8;;;1.1;41.6
74427;BME280;62859;53.906;27.430;2023-11-21T10:16:37;1008.9;;;1.1;41.6
74427;BME280;62859;53.906;27.430;2023-11-21T10:21:47;1008.9;;;1.2;41.8
74427;BME280;62859;53.906;27.430;2023-11-21T10:26:47;1008.9;;;1.2;41.7
74427;BME280;62859;53.906;27.430;2023-11-21T10:31:19;1008.9;;;1.1;41.9
74427;BME280;62859;53.906;27.430;2023-11-21T10:36:47;1008.9;;;1;42.1
74427;BME280;62859;53.906;27.430;2023-11-21T10:41:09;1008.9;;;1.1;41.6
74427;BME280;62859;53.906;27.430;2023-11-21T10:46:13;1009;;;1.2;41.4
74427;BME280;62859;53.906;27.430;2023-11-21T10:51:35;1009;;;1.2;41.4
74427;BME280;62859;53.906;27.430;2023-11-21T10:56:23;1009;;;0.9;41.8
74427;BME280;62859;53.906;27.430;2023-11-21T11:01:45;1009;;;0.9;42.5
74427;BME280;62859;53.906;27.430;2023-11-21T11:06:45;1009.1;;;1;42.7
74427;BME280;62859;53.906;27.430;2023-11-21T11:11:45;1009.1;;;1.2;42.6
74427;BME280;62859;53.906;27.430;2023-11-21T11:16:47;1009.1;;;1.3;42.4
74427;BME280;62859;53.906;27.430;2023-11-21T11:21:21;1009.1;;;1.4;42.1
74427;BME280;62859;53.906;27.430;2023-11-21T11:26:32;1009.1;;;1.6;41.9
74427;BME280;62859;53.906;27.430;2023-11-21T11:31:25;1009.1;;;1.7;41.6
74427;BME280;62859;53.906;27.430;2023-11-21T11:36:10;1009.1;;;1.7;41.7
74427;BME280;62859;53.906;27.430;2023-11-21T11:41:31;1009.1;;;1.9;41.4
74427;BME280;62859;53.906;27.430;2023-11-21T11:56:35;1009.2;;;1.4;41.7
74427;BME280;62859;53.906;27.430;2023-11-21T12:01:19;1009.2;;;1.4;41.9
74427;BME280;62859;53.906;27.430;2023-11-21T12:06:45;1009.3;;;1.4;41.8
74427;BME280;62859;53.906;27.430;2023-11-21T12:11:33;1009.3;;;1.3;41.9
74427;BME280;62859;53.906;27.430;2023-11-21T12:16:19;1009.3;;;1.2;41.9
74427;BME280;62859;53.906;27.430;2023-11-21T12:21:37;1009.4;;;1.1;42.2
74427;BME280;62859;53.906;27.430;2023-11-21T12:26:25;1009.4;;;1;42.2
74427;BME280;62859;53.906;27.430;2023-11-21T12:31:45;1009.4;;;0.9;42.6
74427;BME280;62859;53.906;27.430;2023-11-21T12:36:11;1009.5;;;0.8;42.7
74427;BME280;62859;53.906;27.430;2023-11-21T12:41:21;1009.5;;;0.8;42.8
74427;BME280;62859;53.906;27.430;2023-11-21T12:46:35;1009.6;;;0.8;42.5
74427;BME280;62859;53.906;27.430;2023-11-21T12:51:35;1009.7;;;0.8;42.4
74427;BME280;62859;53.906;27.430;2023-11-21T12:56:45;1009.7;;;0.8;42.6
74427;BME280;62859;53.906;27.430;2023-11-21T13:01:34;1009.7;;;0.8;42.4
74427;BME280;62859;53.906;27.430;2023-11-21T13:06:19;1009.8;;;0.8;42.6
74427;BME280;62859;53.906;27.430;2023-11-21T13:11:09;1009.8;;;0.9;42.4
74427;BME280;62859;53.906;27.430;2023-11-21T13:16:23;1009.8;;;0.9;41.8
74427;BME280;62859;53.906;27.430;2023-11-21T13:21:43;1009.8;;;0.8;41.5
74427;BME280;62859;53.906;27.430;2023-11-21T13:26:11;1009.9;;;0.8;41.4
74427;BME280;62859;53.906;27.430;2023-11-21T13:31:15;1009.9;;;0.7;41.6
74427;BME280;62859;53.906;27.430;2023-11-21T13:36:29;1010;;;0.7;41.5
74427;BME280;62859;53.906;27.430;2023-11-21T13:41:33;1009.9;;;0.6;41.4
74427;BME280;62859;53.906;27.430;2023-11-21T13:46:47;1010;;;0.7;41.2
74427;BME280;62859;53.906;27.430;2023-11-21T13:51:25;1010;;;0.6;41.4
74427;BME280;62859;53.906;27.430;2023-11-21T13:56:09;1010;;;0.5;41.3
74427;BME280;62859;53.906;27.430;2023-11-21T14:01:11;1010;;;0.6;41.4
74427;BME280;62859;53.906;27.430;2023-11-21T14:06:43;1010.1;;;0.5;41.1
74427;BME280;62859;53.906;27.430;2023-11-21T14:11:45;1010.1;;;0.5;41
74427;BME280;62859;53.906;27.430;2023-11-21T14:16:25;1010.1;;;0.5;41
74427;BME280;62859;53.906;27.430;2023-11-21T14:21:21;1010.2;;;0.5;40.8
74427;BME280;62859;53.906;27.430;2023-11-21T14:26:37;1010.3;;;0.4;40.6
74427;BME280;62859;53.906;27.430;2023-11-21T14:31:33;1010.3;;;0.3;40.9
74427;BME280;62859;53.906;27.430;2023-11-21T14:36:45;1010.3;;;0.3;41
74427;BME280;62859;53.906;27.430;2023-11-21T14:41:33;1010.4;;;0.3;41.2
74427;BME280;62859;53.906;27.430;2023-11-21T14:46:17;1010.4;;;0.3;41
74427;BME280;62859;53.906;27.430;2023-11-21T14:51:09;1010.4;;;0.3;41.3
74427;BME280;62859;53.906;27.430;2023-11-21T14:56:45;1010.5;;;0.3;40.9
74427;BME280;62859;53.906;27.430;2023-11-21T15:01:43;1010.6;;;0.3;41.3
74427;BME280;62859;53.906;27.430;2023-11-21T15:06:35;1010.5;;;0.4;40.8
74427;BME280;62859;53.906;27.430;2023-11-21T15:11:09;1010.5;;;0.4;40.4
74427;BME280;62859;53.906;27.430;2023-11-21T15:16:37;1010.6;;;0.4;40.2
74427;BME280;62859;53.906;27.430;2023-11-21T15:21:35;1010.6;;;0.4;40.5
74427;BME280;62859;53.906;27.430;2023-11-21T15:26:45;1010.6;;;0.4;40
74427;BME280;62859;53.906;27.430;2023-11-21T15:31:35;1010.6;;;0.3;40.3
74427;BME280;62859;53.906;27.430;2023-11-21T15:36:17;1010.7;;;0.1;40.5
74427;BME280;62859;53.906;27.430;2023-11-21T15:41:09;1010.7;;;0;40.4
74427;BME280;62859;53.906;27.430;2023-11-21T15:46:25;1010.8;;;0.6;43.3
74427;BME280;62859;53.906;27.430;2023-11-21T15:51:47;1010.8;;;0.7;40
74427;BME280;62859;53.906;27.430;2023-11-21T15:56:38;1010.9;;;0.7;39.9
74427;BME280;62859;53.906;27.430;2023-11-21T16:01:23;1010.9;;;0.6;39.3
74427;BME280;62859;53.906;27.430;2023-11-21T16:06:39;1010.9;;;0.7;39.3
74427;BME280;62859;53.906;27.430;2023-11-21T16:11:49;1010.9;;;0.7;39.1
74427;BME280;62859;53.906;27.430;2023-11-21T16:16:49;1011;;;0.6;40.2
74427;BME280;62859;53.906;27.430;2023-11-21T16:21:10;1011.1;;;0.5;39.3
74427;BME280;62859;53.906;27.430;2023-11-21T16:26:11;1011.1;;;0.3;39.6
74427;BME280;62859;53.906;27.430;2023-11-21T16:31:09;1011.1;;;0.2;39.9
74427;BME280;62859;53.906;27.430;2023-11-21T16:36:09;1011.2;;;0.2;40.1
74427;BME280;62859;53.906;27.430;2023-11-21T16:41:45;1011.2;;;0.1;40.4
74427;BME280;62859;53.906;27.430;2023-11-21T16:46:27;1011.2;;;0;40.5
74427;BME280;62859;53.906;27.430;2023-11-21T16:51:17;1011.2;;;-0.2;40.9
74427;BME280;62859;53.906;27.430;2023-11-21T16:56:21;1011.3;;;-0.2;41
74427;BME280;62859;53.906;27.430;2023-11-21T17:01:31;1011.3;;;-0.3;41.2
74427;BME280;62859;53.906;27.430;2023-11-21T17:06:45;1011.4;;;-0.2;41.3
74427;BME280;62859;53.906;27.430;2023-11-21T17:11:21;1011.4;;;-0.2;41.1
74427;BME280;62859;53.906;27.430;2023-11-21T17:16:09;1011.4;;;-0.3;41.2
74427;BME280;62859;53.906;27.430;2023-11-21T17:21:11;1011.5;;;-0.2;41
74427;BME280;62859;53.906;27.430;2023-11-21T17:26:23;1011.5;;;-0.2;41.1
74427;BME280;62859;53.906;27.430;2023-11-21T17:31:45;1011.5;;;-0.2;41
74427;BME280;62859;53.906;27.430;2023-11-21T17:36:35;1011.6;;;-0.1;41.2
74427;BME280;62859;53.906;27.430;2023-11-21T17:41:10;1011.6;;;-0.1;41.4
74427;BME280;62859;53.906;27.430;2023-11-21T17:46:25;1011.6;;;-0.1;41.3
74427;BME280;62859;53.906;27.430;2023-11-21T17:51:36;1011.6;;;-0.1;41.5
74427;BME280;62859;53.906;27.430;2023-11-21T17:56:47;1011.6;;;-0.2;41.6
74427;BME280;62859;53.906;27.430;2023-11-21T18:01:11;1011.6;;;-0.2;41.9
74427;BME280;62859;53.906;27.430;2023-11-21T18:06:11;1011.6;;;-0.1;41.8
74427;BME280;62859;53.906;27.430;2023-11-21T18:11:11;1011.7;;;-0.2;42
74427;BME280;62859;53.906;27.430;2023-11-21T18:16:23;1011.7;;;-0.3;42.3
74427;BME280;62859;53.906;27.430;2023-11-21T18:21:13;1011.7;;;-0.2;42.5
74427;BME280;62859;53.906;27.430;2023-11-21T18:26:35;1011.7;;;-0.2;42.5
74427;BME280;62859;53.906;27.430;2023-11-21T18:31:20;1011.7;;;-0.3;42
74427;BME280;62859;53.906;27.430;2023-11-21T18:36:37;1011.7;;;-0.3;41.5
74427;BME280;62859;53.906;27.430;2023-11-21T18:41:33;1011.8;;;-0.3;40.6
74427;BME280;62859;53.906;27.430;2023-11-21T18:46:43;1011.8;;;-0.2;40.5
74427;BME280;62859;53.906;27.430;2023-11-21T18:51:11;1011.9;;;-0.3;40.5
74427;BME280;62859;53.906;27.430;2023-11-21T18:56:18;1011.9;;;-0.4;40.7
74427;BME280;62859;53.906;27.430;2023-11-21T19:01:11;1011.9;;;-0.4;40.6
74427;BME280;62859;53.906;27.430;2023-11-21T19:06:21;1012;;;-0.3;40.3
74427;BME280;62859;53.906;27.430;2023-11-21T19:11:45;1012.1;;;-0.3;40.1
74427;BME280;62859;53.906;27.430;2023-11-21T19:16:23;1012.1;;;-0.4;39.9
74427;BME280;62859;53.906;27.430;2023-11-21T19:21:12;1012.1;;;-0.5;40.2
74427;BME280;62859;53.906;27.430;2023-11-21T19:26:36;1012.1;;;-0.5;40.2
74427;BME280;62859;53.906;27.430;2023-11-21T19:31:35;1012.2;;;-0.5;40.4
74427;BME280;62859;53.906;27.430;2023-11-21T19:36:41;1012.2;;;-0.5;40.3
74427;BME280;62859;53.906;27.430;2023-11-21T19:41:25;1012.4;;;-0.5;40.6
74427;BME280;62859;53.906;27.430;2023-11-21T19:46:11;1012.3;;;-0.5;40.7
74427;BME280;62859;53.906;27.430;2023-11-21T19:51:11;1012.4;;;-0.4;40.7
74427;BME280;62859;53.906;27.430;2023-11-21T19:56:09;1012.4;;;-0.4;40.4
74427;BME280;62859;53.906;27.430;2023-11-21T20:01:35;1012.4;;;-0.5;40.4
74427;BME280;62859;53.906;27.430;2023-11-21T20:06:23;1012.5;;;-0.4;40.4
74427;BME280;62859;53.906;27.430;2023-11-21T20:11:19;1012.5;;;-0.4;40.4
74427;BME280;62859;53.906;27.430;2023-11-21T20:16:19;1012.6;;;-0.4;40.5
74427;BME280;62859;53.906;27.430;2023-11-21T20:21:35;1012.7;;;-0.3;40.5
74427;BME280;62859;53.906;27.430;2023-11-21T20:26:41;1012.7;;;-0.4;40.4
74427;BME280;62859;53.906;27.430;2023-11-21T20:31:11;1012.7;;;-0.4;40.4
74427;BME280;62859;53.906;27.430;2023-11-21T20:36:19;1012.7;;;-0.4;40.7
74427;BME280;62859;53.906;27.430;2023-11-21T20:41:11;1012.6;;;-0.5;40.8
74427;BME280;62859;53.906;27.430;2023-11-21T20:46:27;1012.6;;;-0.5;41
74427;BME280;62859;53.906;27.430;2023-11-21T20:51:51;1012.7;;;-0.5;40.8
74427;BME280;62859;53.906;27.430;2023-11-21T20:56:51;1012.6;;;-0.4;40.9
74427;BME280;62859;53.906;27.430;2023-11-21T21:01:25;1012.7;;;-0.4;40.9
74427;BME280;62859;53.906;27.430;2023-11-21T21:06:25;1012.7;;;-0.3;40.9
74427;BME280;62859;53.906;27.430;2023-11-21T21:11:37;1012.7;;;-0.4;41
74427;BME280;62859;53.906;27.430;2023-11-21T21:16:47;1012.8;;;-0.4;41
74427;BME280;62859;53.906;27.430;2023-11-21T21:21:11;1012.8;;;-0.3;41.1
74427;BME280;62859;53.906;27.430;2023-11-21T21:26:23;1012.8;;;-0.2;40.6
74427;BME280;62859;53.906;27.430;2023-11-21T21:31:13;1012.9;;;-0.3;40.9
74427;BME280;62859;53.906;27.430;2023-11-21T21:36:25;1012.9;;;-0.3;41
74427;BME280;62859;53.906;27.430;2023-11-21T21:41:50;1012.9;;;-0.3;40.8
74427;BME280;62859;53.906;27.430;2023-11-21T21:46:41;1012.9;;;-0.2;40.8
74427;BME280;62859;53.906;27.430;2023-11-21T21:51:14;1013;;;-0.1;40.7
74427;BME280;62859;53.906;27.430;2023-11-21T21:56:41;1013.1;;;-0.1;40.6
74427;BME280;62859;53.906;27.430;2023-11-21T22:01:51;1013.1;;;-0.1;40.7
74427;BME280;62859;53.906;27.430;2023-11-21T22:06:13;1013.1;;;-0.1;40.7
74427;BME280;62859;53.906;27.430;2023-11-21T22:11:19;1013.1;;;-0.1;40.7
74427;BME280;62859;53.906;27.430;2023-11-21T22:16:11;1013;;;-0.1;40.8
74427;BME280;62859;53.906;27.430;2023-11-21T22:21:23;1013;;;0;41.1
74427;BME280;62859;53.906;27.430;2023-11-21T22:26:37;1013;;;0;40.9
74427;BME280;62859;53.906;27.430;2023-11-21T22:31:47;1013;;;-0.1;41.2
74427;BME280;62859;53.906;27.430;2023-11-21T22:36:37;1013.1;;;0;41.2
74427;BME280;62859;53.906;27.430;2023-11-21T22:41:11;1013.1;;;0.1;41.1
74427;BME280;62859;53.906;27.430;2023-11-21T22:46:40;1013.1;;;0.2;40.9
74427;BME280;62859;53.906;27.430;2023-11-21T22:51:37;1013.2;;;0.2;40.7
74427;BME280;62859;53.906;27.430;2023-11-21T22:56:49;1013.2;;;0.2;40.8
74427;BME280;62859;53.906;27.430;2023-11-21T23:01:21;1013.2;;;0.3;40.8
74427;BME280;62859;53.906;27.430;2023-11-21T23:06:15;1013.3;;;0.3;40.8
74427;BME280;62859;53.906;27.430;2023-11-21T23:11:11;1013.4;;;0.3;40.8
74427;BME280;62859;53.906;27.430;2023-11-21T23:16:27;1013.4;;;0.4;40.9
74427;BME280;62859;53.906;27.430;2023-11-21T23:21:49;1013.4;;;0.4;41.1
74427;BME280;62859;53.906;27.430;2023-11-21T23:26:37;1013.4;;;0.4;41.3
74427;BME280;62859;53.906;27.430;2023-11-21T23:31:13;1013.5;;;0.4;41.6
74427;BME280;62859;53.906;27.430;2023-11-21T23:36:39;1013.4;;;0.4;41.5
74427;BME280;62859;53.906;27.430;2023-11-21T23:41:37;1013.4;;;0.4;41.7
74427;BME280;62859;53.906;27.430;2023-11-21T23:46:49;1013.4;;;0.5;42
74427;BME280;62859;53.906;27.430;2023-11-21T23:51:13;1013.5;;;0.5;42.1
74427;BME280;62859;53.906;27.430;2023-11-21T23:56:13;1013.6;;;0.5;42.2
